Time;durP1;ratioP1;P1;durP2;ratioP2;P2;SDS_P1;SDS_P2;PMS_P1;PMS_P2;Temp;Humidity;BMP_temperature;BMP_pressure;BME280_temperature;BME280_humidity;BME280_pressure;Samples;Min_cycle;Max_cycle;Signal;HPM_P1;HPM_P2
2022/06/06 00:02:20;;;;;;;18.55;14.70;;;18.70;99.90;;;;;;5050750;28;20211;-32
2022/06/06 00:04:47;;;;;;;20.60;15.25;;;18.60;99.90;;;;;;5054598;28;20271;-32
2022/06/06 00:07:15;;;;;;;18.70;14.70;;;18.60;99.90;;;;;;5069836;28;20192;-32
2022/06/06 00:09:42;;;;;;;21.60;15.65;;;18.60;99.90;;;;;;5058438;28;20812;-32
2022/06/06 00:12:14;;;;;;;19.92;15.27;;;18.60;99.90;;;;;;5062894;28;20267;-32
2022/06/06 00:14:45;;;;;;;20.80;14.80;;;18.60;99.90;;;;;;5047872;28;20208;-32
2022/06/06 00:17:14;;;;;;;19.63;14.90;;;18.50;99.90;;;;;;5036796;28;20708;-32
2022/06/06 00:19:44;;;;;;;20.67;15.70;;;18.50;99.90;;;;;;5054510;28;20212;-32
2022/06/06 00:22:11;;;;;;;20.23;15.48;;;18.50;99.90;;;;;;5069501;28;20191;-32
2022/06/06 00:24:38;;;;;;;24.38;17.73;;;18.40;99.90;;;;;;5064610;28;21090;-32
2022/06/06 00:27:06;;;;;;;22.73;16.15;;;18.40;99.90;;;;;;5055486;28;20192;-32
2022/06/06 00:29:35;;;;;;;19.80;13.93;;;18.40;99.90;;;;;;5045573;28;20304;-33
2022/06/06 00:34:52;;;;;;;16.80;13.52;;;18.40;99.90;;;;;;5041677;28;20216;-32
2022/06/06 00:37:32;;;;;;;18.75;14.05;;;18.40;99.90;;;;;;5048928;28;20207;-33
2022/06/06 00:40:01;;;;;;;20.92;14.68;;;18.30;99.90;;;;;;5057244;28;20231;-32
2022/06/06 00:42:34;;;;;;;22.92;15.57;;;18.30;99.90;;;;;;5052873;28;20323;-32
2022/06/06 00:45:23;;;;;;;19.73;14.68;;;18.30;99.90;;;;;;5054094;28;20286;-32
2022/06/06 00:48:00;;;;;;;21.10;14.95;;;18.30;99.90;;;;;;5056368;28;20203;-32
2022/06/06 00:51:08;;;;;;;18.52;14.50;;;18.30;99.90;;;;;;5042849;28;20215;-33
2022/06/06 00:53:44;;;;;;;16.55;13.57;;;18.30;99.90;;;;;;5049332;28;20266;-33
2022/06/06 00:56:18;;;;;;;17.98;15.27;;;18.30;99.90;;;;;;5061867;28;20294;-32
2022/06/06 00:58:49;;;;;;;21.40;15.38;;;18.30;99.90;;;;;;5058890;28;20288;-32
2022/06/06 01:01:20;;;;;;;18.50;14.65;;;18.30;99.90;;;;;;5049026;28;20615;-33
2022/06/06 01:03:50;;;;;;;18.73;14.35;;;18.30;99.90;;;;;;5019875;28;20621;-33
2022/06/06 01:06:19;;;;;;;18.20;14.10;;;18.30;99.90;;;;;;5040482;28;20649;-32
2022/06/06 01:08:48;;;;;;;17.58;14.57;;;18.30;99.90;;;;;;5060395;28;20227;-33
2022/06/06 01:11:17;;;;;;;18.40;14.30;;;18.20;99.90;;;;;;5048981;28;20231;-33
2022/06/06 01:13:48;;;;;;;18.88;14.38;;;18.20;99.90;;;;;;5061267;28;20257;-32
2022/06/06 01:16:28;;;;;;;19.13;15.23;;;18.20;99.90;;;;;;5055851;28;20765;-33
2022/06/06 01:19:07;;;;;;;19.17;15.25;;;18.20;99.90;;;;;;5054097;28;20234;-33
2022/06/06 01:22:04;;;;;;;17.90;14.65;;;18.20;99.90;;;;;;5057179;28;20192;-33
2022/06/06 01:24:52;;;;;;;18.65;14.80;;;18.20;99.90;;;;;;5041730;28;20188;-32
2022/06/06 01:27:51;;;;;;;18.73;14.63;;;18.20;99.90;;;;;;5061754;28;20226;-33
2022/06/06 01:30:25;;;;;;;19.83;15.57;;;18.20;99.90;;;;;;5054286;28;20315;-32
2022/06/06 01:32:56;;;;;;;19.60;14.10;;;18.20;99.90;;;;;;5052739;28;20210;-33
2022/06/06 01:35:28;;;;;;;18.17;14.93;;;18.20;99.90;;;;;;5052025;28;20200;-33
2022/06/06 01:37:55;;;;;;;21.23;15.05;;;18.20;99.90;;;;;;5048511;28;20319;-32
2022/06/06 01:40:25;;;;;;;19.92;15.07;;;18.20;99.90;;;;;;5055439;28;20203;-33
2022/06/06 01:43:04;;;;;;;17.85;13.90;;;18.20;99.90;;;;;;5041355;28;20213;-33
2022/06/06 01:45:53;;;;;;;19.95;15.40;;;18.20;99.90;;;;;;5058907;28;20728;-33
2022/06/06 01:48:29;;;;;;;18.90;15.13;;;18.20;99.90;;;;;;5061640;28;20215;-32
2022/06/06 01:50:57;;;;;;;20.27;15.32;;;18.10;99.90;;;;;;5047475;28;20213;-33
2022/06/06 01:53:26;;;;;;;20.45;14.70;;;18.10;99.90;;;;;;5056477;28;20213;-33
2022/06/06 01:55:56;;;;;;;19.25;14.77;;;18.10;99.90;;;;;;5053678;28;20705;-33
2022/06/06 01:58:30;;;;;;;17.30;14.13;;;18.10;99.90;;;;;;5044289;28;20303;-32
2022/06/06 02:00:58;;;;;;;19.88;14.15;;;18.00;99.90;;;;;;5057179;28;20547;-33
2022/06/06 02:03:25;;;;;;;18.70;14.88;;;18.00;99.90;;;;;;5060564;28;20294;-33
2022/06/06 02:05:55;;;;;;;17.65;14.45;;;18.00;99.90;;;;;;5059262;28;20219;-33
2022/06/06 02:08:22;;;;;;;17.58;12.93;;;17.90;99.90;;;;;;5050932;28;20217;-32
2022/06/06 02:10:53;;;;;;;17.77;13.35;;;17.90;99.90;;;;;;5063854;28;20328;-32
2022/06/06 02:13:26;;;;;;;19.80;14.50;;;17.80;99.90;;;;;;5052201;28;20218;-33
2022/06/06 02:15:55;;;;;;;16.77;13.18;;;17.80;99.90;;;;;;5058288;28;20210;-33
2022/06/06 02:18:23;;;;;;;16.17;12.32;;;17.80;99.90;;;;;;5062010;28;20220;-33
2022/06/06 02:20:50;;;;;;;15.25;12.10;;;17.70;99.90;;;;;;5063297;28;20566;-34
2022/06/06 02:23:17;;;;;;;17.73;13.15;;;17.70;99.90;;;;;;5049715;28;20231;-34
2022/06/06 02:25:45;;;;;;;15.80;12.20;;;17.70;99.90;;;;;;5060627;28;20210;-34
2022/06/06 02:28:12;;;;;;;15.27;11.88;;;17.70;99.90;;;;;;5053491;28;20208;-34
2022/06/06 02:30:42;;;;;;;16.00;11.75;;;17.60;99.90;;;;;;5058649;28;20219;-34
2022/06/06 02:33:09;;;;;;;17.88;11.95;;;17.60;99.90;;;;;;5052517;28;20663;-34
2022/06/06 02:35:41;;;;;;;16.20;12.02;;;17.50;99.90;;;;;;5063894;28;20302;-34
2022/06/06 02:38:15;;;;;;;18.35;12.13;;;17.50;99.90;;;;;;5058872;28;20214;-34
2022/06/06 02:40:44;;;;;;;12.55;10.73;;;17.50;99.90;;;;;;5044677;28;20710;-34
2022/06/06 02:43:13;;;;;;;13.75;10.32;;;17.40;99.90;;;;;;5046329;28;20196;-34
2022/06/06 02:45:46;;;;;;;18.60;11.70;;;17.40;99.90;;;;;;5039078;28;20204;-34
2022/06/06 02:48:14;;;;;;;13.23;10.43;;;17.40;99.90;;;;;;5044710;28;20299;-34
2022/06/06 02:50:44;;;;;;;14.02;10.68;;;17.40;99.90;;;;;;5067251;28;20207;-34
2022/06/06 02:53:14;;;;;;;14.60;10.37;;;17.30;99.90;;;;;;5056223;28;20204;-34
2022/06/06 02:55:41;;;;;;;15.90;10.43;;;17.30;99.90;;;;;;5051135;28;20215;-34
2022/06/06 02:58:15;;;;;;;13.35;10.40;;;17.20;99.90;;;;;;5058729;28;20199;-34
2022/06/06 03:00:44;;;;;;;13.13;10.00;;;17.20;99.90;;;;;;5050391;28;20265;-34
2022/06/06 03:03:11;;;;;;;11.77;9.90;;;17.20;99.90;;;;;;5036180;28;20199;-34
2022/06/06 03:06:01;;;;;;;12.40;9.63;;;17.10;99.90;;;;;;5062175;28;20232;-34
2022/06/06 03:13:26;;;;;;;11.70;8.18;;;17.00;99.90;;;;;;5024708;28;20673;-34
2022/06/06 03:22:34;;;;;;;12.50;9.02;;;16.80;99.90;;;;;;5062053;28;20200;-34
2022/06/06 03:25:14;;;;;;;13.13;8.82;;;16.80;99.90;;;;;;5048770;28;20696;-34
2022/06/06 03:27:57;;;;;;;11.85;8.15;;;16.80;99.90;;;;;;5062090;28;20624;-34
2022/06/06 03:30:24;;;;;;;11.05;9.02;;;16.70;99.90;;;;;;5056858;28;20225;-34
2022/06/06 03:33:28;;;;;;;11.90;9.82;;;16.70;99.90;;;;;;5064465;28;20207;-34
2022/06/06 03:36:41;;;;;;;13.52;8.70;;;16.70;99.90;;;;;;5054763;28;20250;-34
2022/06/06 03:39:17;;;;;;;13.30;8.65;;;16.70;99.90;;;;;;5024416;28;20250;-34
2022/06/06 03:42:02;;;;;;;13.20;9.00;;;16.60;99.90;;;;;;5047949;28;20580;-34
2022/06/06 03:45:00;;;;;;;12.32;9.07;;;16.60;99.90;;;;;;5055835;28;20218;-34
2022/06/06 03:47:46;;;;;;;12.15;8.65;;;16.60;99.90;;;;;;5047089;28;20620;-34
2022/06/06 03:51:00;;;;;;;12.05;8.50;;;16.60;99.90;;;;;;5036685;28;20205;-34
2022/06/06 03:53:53;;;;;;;14.82;9.20;;;16.60;99.90;;;;;;5042587;28;20213;-34
2022/06/06 03:56:32;;;;;;;12.43;8.60;;;16.60;99.90;;;;;;5052923;28;20311;-35
2022/06/06 03:59:03;;;;;;;12.32;8.60;;;16.60;99.90;;;;;;5048460;28;20473;-34
2022/06/06 04:01:37;;;;;;;12.10;8.27;;;16.60;99.90;;;;;;5059358;28;20293;-34
2022/06/06 04:04:07;;;;;;;10.27;8.13;;;16.60;99.90;;;;;;5064397;28;20314;-34
2022/06/06 04:06:35;;;;;;;10.38;7.68;;;16.60;99.90;;;;;;5068767;28;20207;-34
2022/06/06 04:09:04;;;;;;;8.90;7.40;;;16.60;99.90;;;;;;5050923;28;20204;-34
2022/06/06 04:11:57;;;;;;;9.50;6.95;;;16.60;99.90;;;;;;5061357;28;20242;-34
2022/06/06 04:14:46;;;;;;;9.63;7.38;;;16.60;99.90;;;;;;5048029;28;20212;-34
2022/06/06 04:17:35;;;;;;;9.65;7.68;;;16.60;99.90;;;;;;5045878;28;20222;-34
2022/06/06 04:20:16;;;;;;;9.23;6.55;;;16.50;99.90;;;;;;5065247;28;20223;-34
2022/06/06 04:23:06;;;;;;;9.50;7.00;;;16.50;99.90;;;;;;5061899;28;20617;-34
2022/06/06 04:25:39;;;;;;;10.05;6.40;;;16.50;99.90;;;;;;5058789;28;20658;-34
2022/06/06 04:28:15;;;;;;;8.07;6.05;;;16.50;99.90;;;;;;5062311;28;20227;-34
2022/06/06 04:30:57;;;;;;;7.10;5.72;;;16.40;99.90;;;;;;5050592;28;20698;-33
2022/06/06 04:33:33;;;;;;;7.28;5.45;;;16.40;99.90;;;;;;5063611;28;20598;-34
2022/06/06 04:36:12;;;;;;;6.87;5.17;;;16.40;99.90;;;;;;5058291;28;20295;-34
2022/06/06 04:38:46;;;;;;;5.90;4.20;;;16.40;99.90;;;;;;5051011;28;20314;-34
2022/06/06 04:41:51;;;;;;;8.07;4.40;;;16.40;99.90;;;;;;5062500;28;20607;-34
2022/06/06 04:44:55;;;;;;;6.18;4.20;;;16.40;99.90;;;;;;5051654;28;20690;-34
2022/06/06 04:47:37;;;;;;;7.07;4.05;;;16.40;99.90;;;;;;5017711;28;20310;-34
2022/06/06 04:50:11;;;;;;;5.43;3.97;;;16.40;99.90;;;;;;5032295;28;20261;-34
2022/06/06 04:52:46;;;;;;;4.30;3.78;;;16.40;99.90;;;;;;5033777;28;20491;-34
2022/06/06 04:55:18;;;;;;;4.10;3.20;;;16.40;99.90;;;;;;5051109;28;20219;-33
2022/06/06 04:57:50;;;;;;;4.47;2.90;;;16.40;99.90;;;;;;5045951;28;20316;-34
2022/06/06 05:00:17;;;;;;;5.20;3.33;;;16.40;99.90;;;;;;5036634;28;20239;-36
2022/06/06 05:02:44;;;;;;;4.10;3.00;;;16.40;99.90;;;;;;5051852;28;20218;-36
2022/06/06 05:05:16;;;;;;;3.30;2.80;;;16.40;99.90;;;;;;5037988;28;20227;-36
2022/06/06 05:08:08;;;;;;;3.80;2.70;;;16.40;99.90;;;;;;5051687;28;20755;-36
2022/06/06 05:11:11;;;;;;;3.78;2.47;;;16.50;99.90;;;;;;5054202;28;20290;-35
2022/06/06 05:13:44;;;;;;;4.55;2.67;;;16.50;99.90;;;;;;5030327;28;20251;-35
2022/06/06 05:16:34;;;;;;;3.38;2.50;;;16.60;99.90;;;;;;5045835;28;20261;-35
2022/06/06 05:19:16;;;;;;;3.17;2.17;;;16.60;99.90;;;;;;5049463;28;20223;-35
2022/06/06 05:22:16;;;;;;;4.47;2.20;;;16.70;99.90;;;;;;5047416;28;20211;-35
2022/06/06 05:25:08;;;;;;;2.70;1.83;;;16.70;99.90;;;;;;5051738;28;20210;-35
2022/06/06 05:28:23;;;;;;;3.70;2.15;;;16.70;99.90;;;;;;5051599;28;20261;-35
2022/06/06 05:30:55;;;;;;;2.72;1.80;;;16.80;99.90;;;;;;5046178;28;20212;-35
2022/06/06 05:33:35;;;;;;;3.93;1.77;;;16.80;99.90;;;;;;5052815;28;20202;-35
2022/06/06 05:36:28;;;;;;;2.23;1.80;;;16.80;99.90;;;;;;5059325;28;20223;-35
2022/06/06 05:39:14;;;;;;;2.13;1.77;;;16.80;99.90;;;;;;5023961;28;20740;-35
2022/06/06 05:42:07;;;;;;;2.13;1.58;;;16.90;99.90;;;;;;5066478;28;20295;-35
2022/06/06 05:44:58;;;;;;;2.20;1.70;;;16.90;99.90;;;;;;5046769;28;20193;-35
2022/06/06 05:48:17;;;;;;;2.57;1.23;;;16.90;99.90;;;;;;5061287;28;20198;-35
2022/06/06 05:50:57;;;;;;;2.05;1.42;;;16.90;99.90;;;;;;5027121;28;20219;-35
2022/06/06 05:53:30;;;;;;;2.70;1.42;;;16.90;99.90;;;;;;5037451;28;20304;-34
2022/06/06 05:56:09;;;;;;;2.08;1.35;;;16.90;99.90;;;;;;5052017;28;20203;-33
2022/06/06 05:59:14;;;;;;;1.80;1.40;;;16.90;99.90;;;;;;5045752;28;20208;-34
2022/06/06 06:01:51;;;;;;;1.35;1.20;;;16.90;99.90;;;;;;5048420;28;20230;-33
2022/06/06 06:04:37;;;;;;;1.63;1.23;;;16.90;99.90;;;;;;5056194;28;20238;-34
2022/06/06 06:07:21;;;;;;;1.63;1.20;;;16.90;99.90;;;;;;5055964;28;20284;-34
2022/06/06 06:10:10;;;;;;;1.58;1.02;;;16.90;99.90;;;;;;5050773;28;20238;-34
2022/06/06 06:12:58;;;;;;;1.73;1.15;;;16.90;99.90;;;;;;5045435;28;20226;-34
2022/06/06 06:15:32;;;;;;;3.53;1.40;;;17.00;99.90;;;;;;5031568;28;20204;-34
2022/06/06 06:18:07;;;;;;;1.50;1.40;;;17.00;99.90;;;;;;5037775;28;20216;-34
2022/06/06 06:20:42;;;;;;;1.67;1.10;;;17.10;99.90;;;;;;5055353;28;20292;-34
2022/06/06 06:23:15;;;;;;;1.87;1.33;;;17.10;99.90;;;;;;5058581;28;21024;-34
2022/06/06 06:25:46;;;;;;;3.08;1.30;;;17.10;99.90;;;;;;5051737;28;20282;-34
2022/06/06 06:28:14;;;;;;;3.13;1.45;;;17.20;99.90;;;;;;5044708;28;20206;-34
2022/06/06 06:31:02;;;;;;;4.07;1.30;;;17.20;99.90;;;;;;5040538;28;20770;-34
2022/06/06 06:33:37;;;;;;;1.50;1.10;;;17.30;99.90;;;;;;5042912;28;20208;-34
2022/06/06 06:36:40;;;;;;;5.35;1.33;;;17.30;99.90;;;;;;5063784;28;20210;-34
2022/06/06 06:39:39;;;;;;;1.40;1.30;;;17.50;99.90;;;;;;5042080;28;20219;-34
2022/06/06 06:42:15;;;;;;;2.60;1.33;;;17.50;99.90;;;;;;5054791;28;20231;-34
2022/06/06 06:45:00;;;;;;;2.55;1.50;;;17.50;99.90;;;;;;5037888;28;20675;-35
2022/06/06 06:47:33;;;;;;;1.65;1.00;;;17.50;99.90;;;;;;5041246;28;20306;-35
2022/06/06 06:50:22;;;;;;;3.58;1.70;;;17.60;99.90;;;;;;5049156;28;20208;-35
2022/06/06 06:53:14;;;;;;;2.13;1.85;;;17.60;99.90;;;;;;5062789;28;20371;-35
2022/06/06 06:55:59;;;;;;;2.38;1.48;;;17.70;99.90;;;;;;5053748;28;20235;-34
2022/06/06 06:58:49;;;;;;;3.17;1.48;;;17.70;99.90;;;;;;5054642;28;20211;-34
2022/06/06 07:01:25;;;;;;;3.10;1.60;;;17.80;99.90;;;;;;5046436;28;20220;-35
2022/06/06 07:10:47;;;;;;;3.77;1.90;;;17.80;99.90;;;;;;5048070;28;20247;-34
2022/06/06 07:13:23;;;;;;;2.83;1.92;;;17.90;99.90;;;;;;5065565;28;20234;-34
2022/06/06 07:15:57;;;;;;;2.55;1.95;;;17.90;99.90;;;;;;5038058;28;20197;-34
2022/06/06 07:18:32;;;;;;;3.00;1.70;;;17.90;99.90;;;;;;5044294;28;20566;-34
2022/06/06 07:21:03;;;;;;;2.92;2.00;;;17.90;99.90;;;;;;5057348;28;20309;-33
2022/06/06 07:23:33;;;;;;;3.70;2.03;;;17.90;99.90;;;;;;5040337;28;20208;-34
2022/06/06 07:26:06;;;;;;;5.03;2.23;;;17.90;99.90;;;;;;5048812;28;20185;-34
2022/06/06 07:28:33;;;;;;;2.95;1.90;;;18.00;99.90;;;;;;5035115;28;20204;-34
2022/06/06 07:31:17;;;;;;;5.22;1.90;;;18.00;99.90;;;;;;5034828;28;20787;-34
2022/06/06 07:33:56;;;;;;;2.47;2.15;;;18.00;99.90;;;;;;5041855;28;20764;-34
2022/06/06 07:36:43;;;;;;;3.25;2.00;;;18.10;99.90;;;;;;5036509;28;20742;-34
2022/06/06 07:39:31;;;;;;;2.50;1.88;;;18.10;99.90;;;;;;5042112;28;20569;-34
2022/06/06 07:42:20;;;;;;;3.45;1.98;;;18.20;99.90;;;;;;5048776;28;20214;-34
2022/06/06 07:45:06;;;;;;;2.97;2.20;;;18.20;99.90;;;;;;5055369;28;20204;-34
2022/06/06 07:47:43;;;;;;;2.70;2.25;;;18.30;99.90;;;;;;5052047;28;20200;-34
2022/06/06 07:50:18;;;;;;;5.13;2.17;;;18.30;99.90;;;;;;5061938;28;20346;-34
2022/06/06 07:53:06;;;;;;;2.67;2.30;;;18.40;99.90;;;;;;5042905;28;20217;-34
2022/06/06 07:55:51;;;;;;;4.30;3.03;;;18.40;99.90;;;;;;5035052;28;20243;-34
2022/06/06 07:58:34;;;;;;;4.65;2.90;;;18.50;99.90;;;;;;5045163;28;20304;-34
2022/06/06 08:01:24;;;;;;;4.95;3.30;;;18.50;99.90;;;;;;5030643;28;20302;-34
2022/06/06 08:04:06;;;;;;;6.57;4.15;;;18.60;99.90;;;;;;5045731;28;20562;-34
2022/06/06 08:06:50;;;;;;;5.18;2.95;;;18.60;99.90;;;;;;5067000;28;20311;-35
2022/06/06 08:09:35;;;;;;;6.22;2.40;;;18.60;99.90;;;;;;5046907;28;20228;-34
2022/06/06 08:12:17;;;;;;;3.25;2.28;;;18.60;99.90;;;;;;5037621;28;20236;-34
2022/06/06 08:15:07;;;;;;;3.50;2.22;;;18.60;99.90;;;;;;5046882;28;20195;-34
2022/06/06 08:17:42;;;;;;;2.67;1.65;;;18.60;99.90;;;;;;5058877;28;20299;-34
2022/06/06 08:20:41;;;;;;;2.47;1.50;;;18.60;99.90;;;;;;5052142;28;20207;-34
2022/06/06 08:23:09;;;;;;;2.15;1.30;;;18.60;99.90;;;;;;5069165;28;20203;-34
2022/06/06 08:25:37;;;;;;;1.20;1.10;;;18.60;99.90;;;;;;5058012;28;20208;-34
2022/06/06 08:28:06;;;;;;;1.88;1.40;;;18.60;99.90;;;;;;5053295;28;20207;-34
2022/06/06 08:30:35;;;;;;;2.72;1.35;;;18.50;99.90;;;;;;5042579;28;20246;-35
2022/06/06 08:33:05;;;;;;;2.17;1.40;;;18.60;99.90;;;;;;5051744;28;20209;-35
2022/06/06 08:36:07;;;;;;;1.85;1.05;;;18.60;99.90;;;;;;5062938;28;20222;-35
2022/06/06 08:38:55;;;;;;;1.33;0.82;;;18.60;99.90;;;;;;5034131;28;20298;-35
2022/06/06 08:41:43;;;;;;;2.40;1.05;;;18.60;99.90;;;;;;5065634;28;20310;-35
2022/06/06 08:44:27;;;;;;;3.03;1.20;;;18.60;99.90;;;;;;5043753;28;20215;-35
2022/06/06 08:47:19;;;;;;;1.35;1.15;;;18.60;99.90;;;;;;5047615;28;20714;-35
2022/06/06 08:53:33;;;;;;;2.28;0.98;;;18.60;99.90;;;;;;5048121;28;20299;-35
2022/06/06 08:56:24;;;;;;;2.53;1.05;;;18.60;99.90;;;;;;5056695;28;20682;-34
2022/06/06 08:59:16;;;;;;;1.38;0.80;;;18.50;99.90;;;;;;5055612;28;20680;-34
2022/06/06 09:02:24;;;;;;;1.75;0.90;;;18.50;99.90;;;;;;5041992;28;20233;-34
2022/06/06 09:05:12;;;;;;;1.92;0.82;;;18.50;99.90;;;;;;5033761;28;20706;-34
2022/06/06 09:07:45;;;;;;;1.83;0.93;;;18.50;99.90;;;;;;5054107;28;20723;-34
2022/06/06 09:10:24;;;;;;;1.38;0.90;;;18.50;99.90;;;;;;5031438;28;20319;-34
2022/06/06 09:13:18;;;;;;;3.50;1.10;;;18.50;99.90;;;;;;5054465;28;20653;-34
2022/06/06 09:16:01;;;;;;;1.40;0.73;;;18.50;99.90;;;;;;5049142;28;20219;-34
2022/06/06 09:18:37;;;;;;;1.48;0.98;;;18.60;99.90;;;;;;5045769;28;20254;-34
2022/06/06 09:21:05;;;;;;;2.15;0.80;;;18.60;99.90;;;;;;5042480;28;20224;-34
2022/06/06 09:23:56;;;;;;;1.52;0.90;;;18.70;99.90;;;;;;5057850;28;20203;-35
2022/06/06 09:26:31;;;;;;;2.00;0.95;;;18.70;99.90;;;;;;5040804;28;20208;-35
2022/06/06 09:29:26;;;;;;;1.05;0.80;;;18.80;99.90;;;;;;5056139;28;20569;-35
2022/06/06 09:32:25;;;;;;;3.45;1.00;;;18.80;99.90;;;;;;5056936;28;20219;-35
2022/06/06 09:35:27;;;;;;;1.85;0.85;;;18.80;99.90;;;;;;5046432;28;20619;-35
2022/06/06 09:38:12;;;;;;;1.25;0.80;;;18.80;99.90;;;;;;5050690;28;20299;-35
2022/06/06 09:41:05;;;;;;;2.67;0.90;;;18.80;99.90;;;;;;5052071;28;20886;-35
2022/06/06 09:43:44;;;;;;;1.73;1.00;;;18.90;99.90;;;;;;5038488;28;20231;-35
2022/06/06 09:46:24;;;;;;;2.08;0.82;;;18.90;99.90;;;;;;5037730;28;20203;-35
2022/06/06 09:48:57;;;;;;;2.25;1.00;;;19.00;99.90;;;;;;5045031;28;20299;-35
2022/06/06 09:51:46;;;;;;;4.88;1.10;;;19.00;99.90;;;;;;5036783;28;20235;-35
2022/06/06 10:01:13;;;;;;;2.63;0.77;;;19.20;99.90;;;;;;5044300;28;20682;-35
2022/06/06 10:04:30;;;;;;;1.80;0.90;;;19.20;99.90;;;;;;5045483;28;20196;-35
2022/06/06 10:07:24;;;;;;;1.27;0.80;;;19.20;99.90;;;;;;5040418;28;20216;-35
2022/06/06 10:10:03;;;;;;;1.85;0.85;;;19.20;99.90;;;;;;5041773;28;20200;-35
2022/06/06 10:12:42;;;;;;;0.98;0.88;;;19.20;99.90;;;;;;5063414;28;20575;-35
2022/06/06 10:15:29;;;;;;;1.80;0.93;;;19.20;99.90;;;;;;5051588;28;20207;-35
2022/06/06 10:18:15;;;;;;;1.00;0.90;;;19.10;99.90;;;;;;5049781;28;20752;-35
2022/06/06 10:21:10;;;;;;;1.20;1.00;;;19.10;99.90;;;;;;5062249;28;20246;-35
2022/06/06 10:23:59;;;;;;;1.95;0.68;;;19.20;99.90;;;;;;5067426;28;20206;-35
2022/06/06 10:27:00;;;;;;;1.15;0.75;;;19.20;99.90;;;;;;5036368;28;20192;-35
2022/06/06 10:33:02;;;;;;;1.70;1.00;;;19.20;99.90;;;;;;5065534;28;20215;-35
2022/06/06 10:35:45;;;;;;;0.82;0.77;;;19.20;99.90;;;;;;5058571;28;20211;-35
2022/06/06 10:38:12;;;;;;;0.82;0.82;;;19.20;99.90;;;;;;5044936;28;20200;-35
2022/06/06 10:40:59;;;;;;;1.42;0.77;;;19.20;99.90;;;;;;5051793;28;20233;-35
2022/06/06 10:43:46;;;;;;;1.80;0.90;;;19.30;99.90;;;;;;5029865;28;20213;-37
2022/06/06 10:46:32;;;;;;;1.88;0.80;;;19.30;99.90;;;;;;5036742;28;20295;-35
2022/06/06 10:49:39;;;;;;;1.95;0.70;;;19.30;99.90;;;;;;5045732;28;20728;-35
2022/06/06 10:52:46;;;;;;;1.27;0.70;;;19.30;99.90;;;;;;5037210;28;20254;-35
2022/06/06 10:55:22;;;;;;;2.70;0.95;;;19.40;99.90;;;;;;5046590;28;20204;-35
2022/06/06 10:58:01;;;;;;;2.22;0.73;;;19.40;99.90;;;;;;5044228;28;20257;-35
2022/06/06 11:00:50;;;;;;;1.27;0.80;;;19.40;99.90;;;;;;5036964;28;20301;-35
2022/06/06 11:03:50;;;;;;;4.25;0.75;;;19.50;99.90;;;;;;5046891;28;20313;-35
2022/06/06 11:06:50;;;;;;;4.53;0.80;;;19.50;99.90;;;;;;5039937;28;20205;-35
2022/06/06 11:09:35;;;;;;;3.30;0.73;;;19.50;99.90;;;;;;5040165;28;20265;-35
2022/06/06 11:12:04;;;;;;;3.15;0.70;;;19.50;99.90;;;;;;5045149;28;20218;-35
2022/06/06 11:14:44;;;;;;;2.25;0.65;;;19.50;99.90;;;;;;5053072;28;20204;-35
2022/06/06 11:17:39;;;;;;;2.47;0.80;;;19.50;99.90;;;;;;5065914;28;20209;-35
2022/06/06 11:20:35;;;;;;;2.05;0.90;;;19.50;99.90;;;;;;5046898;28;20200;-35
2022/06/06 11:23:42;;;;;;;0.98;0.68;;;19.50;99.90;;;;;;5045715;28;20312;-35
2022/06/06 11:27:05;;;;;;;2.63;0.88;;;19.50;99.90;;;;;;5047033;28;20305;-35
2022/06/06 11:30:09;;;;;;;2.80;0.80;;;19.50;99.90;;;;;;5035981;28;20243;-35
2022/06/06 11:33:13;;;;;;;2.15;0.65;;;19.50;99.90;;;;;;5048530;28;20299;-35
2022/06/06 11:36:13;;;;;;;1.77;0.70;;;19.50;99.90;;;;;;5051435;28;20239;-35
2022/06/06 11:39:05;;;;;;;1.45;0.52;;;19.50;99.90;;;;;;5052198;28;20204;-35
2022/06/06 11:42:12;;;;;;;1.52;0.47;;;19.50;99.90;;;;;;5053997;28;20636;-35
2022/06/06 11:44:40;;;;;;;2.28;0.50;;;19.60;99.90;;;;;;5061054;28;20251;-35
2022/06/06 11:47:25;;;;;;;1.30;0.75;;;19.70;99.90;;;;;;5051743;28;20215;-35
2022/06/06 11:50:00;;;;;;;0.98;0.70;;;19.80;99.90;;;;;;5042337;28;20203;-35
2022/06/06 11:52:39;;;;;;;4.20;0.90;;;19.90;99.90;;;;;;5053995;28;20243;-35
2022/06/06 11:55:28;;;;;;;0.80;0.70;;;20.00;99.90;;;;;;5037737;28;20196;-35
2022/06/06 11:58:21;;;;;;;1.27;0.60;;;20.20;99.90;;;;;;5063132;28;20260;-35
2022/06/06 12:01:09;;;;;;;2.00;0.75;;;20.20;99.90;;;;;;5039913;28;20238;-36
2022/06/06 12:03:54;;;;;;;2.40;0.60;;;20.20;99.90;;;;;;5033224;28;20730;-36
2022/06/06 12:06:59;;;;;;;2.50;0.90;;;20.30;99.90;;;;;;5058409;28;20536;-35
2022/06/06 12:09:36;;;;;;;0.65;0.50;;;20.30;99.90;;;;;;5043401;28;20355;-35
2022/06/06 12:12:03;;;;;;;1.50;0.60;;;20.20;99.90;;;;;;5049298;28;20215;-35
2022/06/06 12:14:43;;;;;;;2.15;0.60;;;20.20;99.90;;;;;;5038913;28;20273;-35
2022/06/06 12:17:19;;;;;;;1.52;0.57;;;20.20;99.90;;;;;;5047148;28;20267;-35
2022/06/06 12:20:01;;;;;;;3.47;0.73;;;20.10;99.90;;;;;;5048944;28;20209;-36
2022/06/06 12:22:59;;;;;;;1.92;0.80;;;20.20;99.90;;;;;;5072383;28;20237;-36
2022/06/06 12:25:49;;;;;;;2.65;0.70;;;20.20;99.90;;;;;;5057915;28;20192;-36
2022/06/06 12:28:26;;;;;;;2.15;0.60;;;20.20;99.90;;;;;;5056296;28;20542;-36
2022/06/06 12:31:04;;;;;;;1.50;0.70;;;20.30;99.90;;;;;;5039118;28;20288;-35
2022/06/06 12:34:04;;;;;;;1.90;0.60;;;20.30;99.90;;;;;;5038491;28;20255;-36
2022/06/06 12:37:09;;;;;;;2.35;0.80;;;20.40;99.90;;;;;;5065068;28;20207;-36
2022/06/06 12:40:16;;;;;;;1.55;0.68;;;20.50;99.90;;;;;;5066189;28;20207;-36
2022/06/06 12:43:04;;;;;;;2.03;0.60;;;20.60;99.90;;;;;;5048060;28;20235;-36
2022/06/06 12:45:37;;;;;;;1.85;0.52;;;20.60;99.90;;;;;;5053855;28;20207;-36
2022/06/06 12:48:30;;;;;;;1.20;0.60;;;20.70;99.90;;;;;;5048896;28;20228;-36
2022/06/06 12:51:12;;;;;;;1.35;0.57;;;20.70;99.90;;;;;;5049047;28;20192;-36
2022/06/06 12:53:56;;;;;;;4.25;0.50;;;20.80;99.90;;;;;;5031066;28;20210;-34
2022/06/06 12:56:48;;;;;;;2.05;0.80;;;20.80;99.90;;;;;;5053504;28;20666;-35
2022/06/06 12:59:26;;;;;;;0.98;0.60;;;20.80;99.90;;;;;;5039109;28;20208;-35
2022/06/06 13:02:00;;;;;;;1.55;0.60;;;20.90;99.90;;;;;;5042102;28;20235;-35
2022/06/06 13:05:18;;;;;;;1.67;0.80;;;20.90;99.90;;;;;;5045308;28;20301;-36
2022/06/06 13:08:01;;;;;;;1.05;0.65;;;20.90;99.90;;;;;;5032761;28;20565;-36
2022/06/06 13:10:52;;;;;;;1.88;0.70;;;21.00;99.90;;;;;;5044169;28;20281;-37
2022/06/06 13:13:40;;;;;;;2.75;0.93;;;21.00;99.90;;;;;;5057457;28;20198;-36
2022/06/06 13:16:44;;;;;;;1.73;0.88;;;21.00;99.90;;;;;;5039240;28;20745;-36
2022/06/06 13:19:40;;;;;;;1.80;0.88;;;21.00;99.90;;;;;;5050929;28;20204;-36
2022/06/06 13:22:19;;;;;;;2.08;0.70;;;21.10;99.90;;;;;;5030710;28;20312;-35
2022/06/06 13:25:25;;;;;;;0.93;0.70;;;21.10;99.90;;;;;;5051865;28;20225;-35
2022/06/06 13:27:57;;;;;;;1.70;0.88;;;21.10;99.90;;;;;;5045935;28;20213;-35
2022/06/06 13:30:30;;;;;;;1.45;0.70;;;21.10;99.90;;;;;;5049461;28;20218;-35
2022/06/06 13:33:25;;;;;;;2.50;0.80;;;21.10;99.90;;;;;;5030836;28;20213;-35
2022/06/06 13:36:08;;;;;;;1.33;0.88;;;21.10;99.90;;;;;;5042170;28;20689;-35
2022/06/06 13:38:47;;;;;;;2.47;0.80;;;21.20;99.90;;;;;;5033626;28;20220;-35
2022/06/06 13:41:24;;;;;;;3.13;1.00;;;21.20;99.90;;;;;;5031817;28;20239;-35
2022/06/06 13:43:55;;;;;;;3.53;0.88;;;21.20;99.90;;;;;;5038927;28;20751;-35
2022/06/06 13:46:49;;;;;;;1.77;0.70;;;21.20;99.90;;;;;;5049034;28;20990;-35
2022/06/06 13:49:37;;;;;;;3.05;0.73;;;21.30;99.90;;;;;;5041261;28;20694;-35
2022/06/06 13:52:43;;;;;;;1.88;0.82;;;21.30;99.90;;;;;;5043176;28;20227;-35
2022/06/06 13:55:27;;;;;;;2.35;0.77;;;21.30;99.90;;;;;;5031840;28;20686;-35
2022/06/06 13:58:12;;;;;;;3.03;0.80;;;21.30;99.90;;;;;;5035349;28;20737;-35
2022/06/06 14:00:51;;;;;;;2.17;1.33;;;21.30;99.90;;;;;;5031190;28;20205;-35
2022/06/06 14:03:42;;;;;;;1.42;0.50;;;21.30;99.90;;;;;;5040489;28;20334;-35
2022/06/06 14:06:41;;;;;;;2.30;0.73;;;21.30;99.90;;;;;;5047053;28;20208;-36
2022/06/06 14:09:15;;;;;;;0.85;0.52;;;21.40;99.70;;;;;;5052978;28;20641;-35
2022/06/06 14:12:09;;;;;;;2.53;1.00;;;21.40;99.90;;;;;;5050707;28;20208;-35
2022/06/06 14:14:41;;;;;;;1.48;0.50;;;21.40;99.90;;;;;;5039822;28;20200;-36
2022/06/06 14:17:13;;;;;;;2.50;1.20;;;21.50;99.90;;;;;;5046298;28;20212;-36
2022/06/06 14:19:46;;;;;;;3.97;0.95;;;21.60;99.90;;;;;;5048262;28;20298;-36
2022/06/06 14:22:27;;;;;;;2.05;0.70;;;21.60;99.90;;;;;;5041881;28;20620;-36
2022/06/06 14:24:55;;;;;;;1.83;0.77;;;21.60;99.90;;;;;;5042124;28;20633;-36
2022/06/06 14:27:24;;;;;;;1.60;0.60;;;21.60;99.90;;;;;;5049918;28;20222;-37
2022/06/06 14:29:51;;;;;;;1.92;0.68;;;21.60;99.90;;;;;;5031769;28;20196;-36
2022/06/06 14:32:24;;;;;;;2.80;0.70;;;21.60;99.90;;;;;;5050188;28;20204;-37